createdAt,value
2022-10-17T00:01:28.184Z,11.10
2022-10-17T00:04:02.486Z,11.10
2022-10-17T00:06:34.213Z,11.00
2022-10-17T00:09:06.052Z,11.00
2022-10-17T00:11:37.772Z,11.00
2022-10-17T00:14:09.557Z,10.90
2022-10-17T00:16:41.299Z,10.90
2022-10-17T00:19:15.274Z,10.90
2022-10-17T00:21:48.847Z,10.80
2022-10-17T00:24:20.657Z,10.80
2022-10-17T00:26:52.362Z,10.70
2022-10-17T00:29:24.133Z,10.70
2022-10-17T00:31:56.526Z,10.70
2022-10-17T00:34:29.167Z,10.60
2022-10-17T00:37:00.882Z,10.60
2022-10-17T00:39:32.631Z,10.60
2022-10-17T00:42:04.555Z,10.60
2022-10-17T00:44:38.749Z,10.60
2022-10-17T00:47:14.011Z,10.50
2022-10-17T00:49:48.478Z,10.50
2022-10-17T00:52:30.628Z,10.50
2022-10-17T00:55:06.258Z,10.40
2022-10-17T00:57:38.224Z,10.50
2022-10-17T01:00:10.988Z,10.50
2022-10-17T01:02:45.145Z,10.40
2022-10-17T01:05:17.810Z,10.40
2022-10-17T01:07:50.510Z,10.40
2022-10-17T01:12:59.296Z,10.30
2022-10-17T01:15:50.618Z,10.30
2022-10-17T01:18:22.284Z,10.30
2022-10-17T01:21:12.612Z,10.20
2022-10-17T01:23:50.357Z,10.20
2022-10-17T01:26:40.743Z,10.20
2022-10-17T01:29:22.816Z,10.20
2022-10-17T01:32:13.282Z,10.10
2022-10-17T01:35:06.214Z,10.10
2022-10-17T01:37:43.678Z,10.10
2022-10-17T01:40:21.644Z,10.10
2022-10-17T01:42:53.340Z,10.10
2022-10-17T01:45:34.134Z,10.10
2022-10-17T01:48:08.596Z,10.00
2022-10-17T01:50:43.748Z,10.00
2022-10-17T01:53:19.704Z,10.00
2022-10-17T01:55:53.800Z,10.00
2022-10-17T01:58:28.155Z,10.00
2022-10-17T02:01:01.770Z,10.00
2022-10-17T02:03:36.476Z,10.00
2022-10-17T02:06:10.406Z,10.00
2022-10-17T02:08:44.278Z,9.90
2022-10-17T02:11:26.093Z,9.90
2022-10-17T02:14:06.910Z,9.90
2022-10-17T02:16:43.257Z,9.90
2022-10-17T02:19:17.732Z,9.90
2022-10-17T02:22:12.864Z,9.80
2022-10-17T02:24:50.724Z,9.80
2022-10-17T02:27:25.659Z,9.80
2022-10-17T02:30:01.521Z,9.80
2022-10-17T02:32:39.048Z,9.70
2022-10-17T02:35:13.346Z,9.70
2022-10-17T02:37:47.768Z,9.60
2022-10-17T02:40:20.954Z,9.60
2022-10-17T02:42:53.096Z,9.50
2022-10-17T02:45:26.630Z,9.60
2022-10-17T02:48:05.909Z,9.60
2022-10-17T02:50:40.423Z,9.60
2022-10-17T02:53:21.971Z,9.60
2022-10-17T02:55:59.393Z,9.50
2022-10-17T02:58:32.945Z,9.60
2022-10-17T03:01:05.128Z,9.60
2022-10-17T03:03:36.886Z,9.60
2022-10-17T03:06:08.726Z,9.60
2022-10-17T03:08:40.485Z,9.60
2022-10-17T03:11:12.204Z,9.70
2022-10-17T03:13:43.886Z,9.60
2022-10-17T03:16:15.599Z,9.60
2022-10-17T03:18:50.024Z,9.70
2022-10-17T03:21:24.987Z,9.70
2022-10-17T03:23:56.707Z,9.70
2022-10-17T03:26:30.611Z,9.70
2022-10-17T03:29:02.373Z,9.70
2022-10-17T03:31:36.570Z,9.70
2022-10-17T03:34:10.714Z,9.70
2022-10-17T03:36:42.467Z,9.70
2022-10-17T03:39:14.285Z,9.70
2022-10-17T03:41:46.303Z,9.60
2022-10-17T03:44:18.065Z,9.60
2022-10-17T03:46:49.823Z,9.70
2022-10-17T03:49:21.569Z,9.60
2022-10-17T03:51:55.716Z,9.60
2022-10-17T03:54:27.423Z,9.60
2022-10-17T03:56:59.151Z,9.70
2022-10-17T03:59:30.882Z,9.70
2022-10-17T04:02:02.836Z,9.70
2022-10-17T04:04:34.573Z,9.60
2022-10-17T04:07:07.221Z,9.70
2022-10-17T04:09:38.971Z,9.60
2022-10-17T04:12:10.755Z,9.60
2022-10-17T04:14:42.489Z,9.70
2022-10-17T04:17:16.391Z,9.70
2022-10-17T04:19:49.197Z,9.70
2022-10-17T04:22:20.996Z,9.80
2022-10-17T04:24:52.688Z,9.70
2022-10-17T04:27:24.671Z,9.70
2022-10-17T04:29:56.430Z,9.80
2022-10-17T04:32:28.744Z,9.70
2022-10-17T04:35:03.029Z,9.70
2022-10-17T04:37:34.806Z,9.80
2022-10-17T04:40:06.867Z,9.80
2022-10-17T04:42:38.664Z,9.90
2022-10-17T04:45:10.587Z,9.90
2022-10-17T04:47:42.387Z,9.90
2022-10-17T04:50:14.089Z,10.00
2022-10-17T04:52:45.863Z,10.00
2022-10-17T04:55:17.622Z,10.00
2022-10-17T04:57:49.410Z,10.00
2022-10-17T05:00:21.131Z,10.00
2022-10-17T05:02:53.618Z,10.10
2022-10-17T05:05:25.387Z,10.00
2022-10-17T05:07:57.234Z,10.10
2022-10-17T05:10:28.965Z,10.00
2022-10-17T05:13:00.778Z,10.00
2022-10-17T05:15:32.730Z,10.00
2022-10-17T05:18:05.435Z,10.00
2022-10-17T05:20:37.224Z,10.00
2022-10-17T05:23:09.032Z,10.00
2022-10-17T05:25:40.747Z,10.00
2022-10-17T05:28:12.534Z,10.10
2022-10-17T05:30:44.270Z,10.10
2022-10-17T05:33:16.111Z,10.10
2022-10-17T05:35:47.830Z,10.20
2022-10-17T05:38:19.676Z,10.20
2022-10-17T05:40:51.404Z,10.20
2022-10-17T05:43:25.780Z,10.20
2022-10-17T05:46:02.512Z,10.20
2022-10-17T05:48:34.444Z,10.30
2022-10-17T05:51:09.603Z,10.30
2022-10-17T05:53:44.261Z,10.30
2022-10-17T05:56:20.383Z,10.40
2022-10-17T05:58:55.210Z,10.40
2022-10-17T06:01:29.168Z,10.50
2022-10-17T06:04:00.950Z,10.50
2022-10-17T06:06:32.680Z,10.50
2022-10-17T06:09:04.508Z,10.60
2022-10-17T06:11:36.349Z,10.60
2022-10-17T06:14:08.743Z,10.70
2022-10-17T06:16:40.472Z,10.80
2022-10-17T06:19:12.316Z,11.00
2022-10-17T06:21:44.045Z,11.10
2022-10-17T06:24:15.803Z,11.20
2022-10-17T06:26:49.835Z,11.50
2022-10-17T06:29:21.631Z,12.30
2022-10-17T06:31:54.103Z,12.90
2022-10-17T06:34:25.874Z,13.10
2022-10-17T06:39:35.217Z,13.90
2022-10-17T06:42:06.948Z,15.20
2022-10-17T06:44:40.089Z,16.50
2022-10-17T06:47:16.530Z,17.90
2022-10-17T06:49:51.117Z,18.70
2022-10-17T06:52:25.180Z,18.70
2022-10-17T06:54:56.988Z,18.20
2022-10-17T06:57:28.879Z,17.60
2022-10-17T07:00:00.862Z,17.20
2022-10-17T07:02:32.660Z,17.00
2022-10-17T07:05:04.593Z,16.80
2022-10-17T07:07:40.065Z,16.60
2022-10-17T07:10:14.887Z,16.50
2022-10-17T07:12:46.653Z,16.20
2022-10-17T07:15:21.011Z,16.00
2022-10-17T07:17:52.694Z,15.60
2022-10-17T07:20:24.689Z,15.30
2022-10-17T07:22:56.674Z,15.10
2022-10-17T07:25:30.641Z,15.00
2022-10-17T07:28:02.365Z,14.90
2022-10-17T07:30:34.201Z,14.90
2022-10-17T07:33:05.934Z,14.90
2022-10-17T07:35:38.496Z,15.00
2022-10-17T07:38:10.504Z,15.10
2022-10-17T07:40:42.395Z,15.20
2022-10-17T07:43:14.132Z,15.30
2022-10-17T07:45:45.948Z,15.40
2022-10-17T07:48:18.229Z,15.40
2022-10-17T07:50:50.194Z,15.40
2022-10-17T07:53:21.931Z,15.30
2022-10-17T07:55:53.693Z,15.30
2022-10-17T07:58:25.967Z,15.30
2022-10-17T08:03:37.337Z,15.40
2022-10-17T08:06:09.144Z,15.50
2022-10-17T08:08:41.537Z,15.60
2022-10-17T08:11:13.849Z,15.70
2022-10-17T08:13:45.562Z,15.80
2022-10-17T08:16:17.319Z,15.80
2022-10-17T08:18:49.054Z,16.00
2022-10-17T08:21:20.845Z,16.20
2022-10-17T08:23:52.568Z,16.40
2022-10-17T08:26:24.351Z,16.60
2022-10-17T08:28:56.472Z,16.80
2022-10-17T08:31:28.410Z,17.00
2022-10-17T08:34:00.137Z,17.10
2022-10-17T08:36:31.990Z,17.20
2022-10-17T08:39:03.898Z,17.20
2022-10-17T08:41:35.698Z,17.30
2022-10-17T08:44:25.851Z,17.30
2022-10-17T08:46:59.655Z,17.40
2022-10-17T08:49:39.592Z,17.40
2022-10-17T08:52:16.745Z,17.30
2022-10-17T08:54:49.137Z,17.30
2022-10-17T08:57:20.967Z,17.20
2022-10-17T08:59:53.881Z,17.10
2022-10-17T09:02:37.299Z,17.00
2022-10-17T09:05:22.449Z,16.90
2022-10-17T09:08:15.750Z,16.80
2022-10-17T09:10:59.824Z,16.80
2022-10-17T09:13:31.558Z,16.90
2022-10-17T09:16:08.869Z,17.10
2022-10-17T09:18:41.773Z,17.10
2022-10-17T09:21:23.035Z,17.20
2022-10-17T09:24:09.496Z,17.30
2022-10-17T09:26:42.008Z,17.20
2022-10-17T09:29:36.221Z,17.20
2022-10-17T09:32:18.418Z,17.20
2022-10-17T09:34:51.285Z,17.30
2022-10-17T09:37:27.794Z,17.50
2022-10-17T09:39:59.576Z,17.70
2022-10-17T09:42:31.863Z,17.70
2022-10-17T09:45:06.018Z,17.80
2022-10-17T09:47:45.832Z,17.80
2022-10-17T09:50:22.139Z,17.90
2022-10-17T09:52:54.461Z,18.00
2022-10-17T09:55:38.750Z,18.10
2022-10-17T09:58:13.073Z,18.20
2022-10-17T10:00:49.244Z,18.20
2022-10-17T10:03:27.717Z,18.20
2022-10-17T10:05:59.727Z,18.20
2022-10-17T10:08:48.938Z,18.10
2022-10-17T10:11:26.214Z,18.00
2022-10-17T10:14:10.805Z,18.00
2022-10-17T10:16:43.382Z,17.90
2022-10-17T10:19:31.126Z,17.70
2022-10-17T10:22:16.453Z,17.70
2022-10-17T10:25:08.804Z,17.50
2022-10-17T10:27:41.373Z,17.40
2022-10-17T10:30:28.637Z,17.30
2022-10-17T10:33:00.957Z,17.30
2022-10-17T10:35:38.801Z,17.30
2022-10-17T10:38:14.043Z,17.40
2022-10-17T10:40:47.366Z,17.50
2022-10-17T10:43:31.681Z,17.70
2022-10-17T10:46:15.421Z,17.90
2022-10-17T10:48:52.152Z,17.90
2022-10-17T10:51:26.890Z,18.00
2022-10-17T10:54:07.077Z,18.00
2022-10-17T10:56:38.926Z,18.00
2022-10-17T10:59:19.289Z,18.10
2022-10-17T11:01:57.001Z,18.20
2022-10-17T11:04:29.541Z,18.20
2022-10-17T11:07:05.490Z,18.20
2022-10-17T11:09:39.608Z,18.30
2022-10-17T11:12:14.645Z,18.30
2022-10-17T11:14:49.754Z,18.40
2022-10-17T11:17:29.470Z,18.50
2022-10-17T11:20:01.402Z,18.50
2022-10-17T11:22:36.573Z,18.50
2022-10-17T11:25:27.125Z,18.50
2022-10-17T11:28:04.497Z,18.30
2022-10-17T11:31:05.738Z,18.30
2022-10-17T11:34:00.880Z,18.40
2022-10-17T11:36:34.853Z,18.50
2022-10-17T11:39:12.492Z,18.60
2022-10-17T11:41:46.400Z,18.70
2022-10-17T11:44:18.083Z,18.80
2022-10-17T11:46:52.667Z,19.10
2022-10-17T11:49:32.150Z,19.10
2022-10-17T11:52:51.388Z,19.20
2022-10-17T11:55:22.120Z,19.30
2022-10-17T11:58:12.625Z,19.40
2022-10-17T12:01:02.869Z,19.40
2022-10-17T12:03:46.792Z,19.40
2022-10-17T12:06:23.728Z,19.20
2022-10-17T12:08:59.812Z,19.00
2022-10-17T12:11:40.681Z,18.90
2022-10-17T12:14:33.483Z,18.80
2022-10-17T12:17:06.520Z,18.70
2022-10-17T12:19:38.338Z,18.60
2022-10-17T12:22:13.313Z,18.50
2022-10-17T12:24:54.842Z,18.50
2022-10-17T12:27:29.960Z,18.50
2022-10-17T12:30:03.800Z,18.50
2022-10-17T12:33:00.088Z,18.50
2022-10-17T12:35:30.693Z,18.50
2022-10-17T12:38:15.889Z,18.50
2022-10-17T12:40:50.694Z,18.60
2022-10-17T12:43:28.564Z,18.70
2022-10-17T12:46:06.435Z,18.80
2022-10-17T12:48:40.293Z,19.00
2022-10-17T12:54:13.796Z,19.80
2022-10-17T12:56:46.726Z,19.90
2022-10-17T12:59:26.341Z,19.90
2022-10-17T13:01:59.692Z,19.80
2022-10-17T13:04:31.914Z,19.70
2022-10-17T13:07:06.105Z,19.50
2022-10-17T13:09:38.839Z,19.40
2022-10-17T13:12:15.543Z,19.30
2022-10-17T13:14:48.038Z,19.30
2022-10-17T13:17:24.612Z,19.30
2022-10-17T13:19:56.837Z,19.20
2022-10-17T13:22:32.365Z,19.20
2022-10-17T13:25:09.062Z,19.20
2022-10-17T13:27:40.780Z,19.20
2022-10-17T13:30:32.011Z,19.20
2022-10-17T13:33:15.994Z,19.20
2022-10-17T13:35:59.820Z,19.10
2022-10-17T13:38:34.192Z,19.00
2022-10-17T13:41:34.120Z,19.00
2022-10-17T13:44:07.571Z,19.00
2022-10-17T13:46:39.958Z,18.90
2022-10-17T13:49:16.229Z,18.90
2022-10-17T13:51:51.150Z,18.90
2022-10-17T13:54:32.200Z,18.90
2022-10-17T13:57:05.562Z,18.90
2022-10-17T13:59:39.766Z,18.90
2022-10-17T14:02:14.487Z,18.90
2022-10-17T14:08:09.532Z,18.80
2022-10-17T14:10:38.864Z,18.80
2022-10-17T14:13:30.374Z,18.80
2022-10-17T14:16:04.656Z,18.70
2022-10-17T14:18:37.393Z,18.70
2022-10-17T14:24:26.352Z,18.60
2022-10-17T14:26:59.619Z,18.50
2022-10-17T14:29:32.282Z,18.40
2022-10-17T14:32:11.008Z,18.30
2022-10-17T14:34:46.701Z,18.30
2022-10-17T14:37:38.210Z,18.30
2022-10-17T14:40:24.099Z,18.20
2022-10-17T14:42:57.702Z,18.20
2022-10-17T14:45:37.059Z,18.20
2022-10-17T14:48:23.440Z,18.10
2022-10-17T14:51:07.536Z,18.10
2022-10-17T14:53:39.557Z,18.00
2022-10-17T14:56:24.750Z,18.00
2022-10-17T14:58:56.488Z,17.90
2022-10-17T15:01:28.264Z,17.90
2022-10-17T15:04:00.085Z,17.80
2022-10-17T15:06:33.985Z,17.80
2022-10-17T15:09:05.739Z,17.70
2022-10-17T15:11:37.921Z,17.70
2022-10-17T15:14:09.636Z,17.60
2022-10-17T15:16:41.336Z,17.50
2022-10-17T15:19:13.880Z,17.50
2022-10-17T15:21:47.294Z,17.40
2022-10-17T15:24:19.209Z,17.30
2022-10-17T15:26:51.005Z,17.30
2022-10-17T15:29:25.066Z,17.20
2022-10-17T15:31:56.903Z,17.20
2022-10-17T15:34:28.646Z,17.10
2022-10-17T15:37:00.649Z,17.10
2022-10-17T15:39:32.622Z,17.10
2022-10-17T15:42:08.247Z,17.00
2022-10-17T15:44:43.959Z,17.00
2022-10-17T15:47:28.931Z,16.90
2022-10-17T15:50:01.464Z,16.90
2022-10-17T15:52:33.208Z,16.90
2022-10-17T15:55:07.660Z,16.80
2022-10-17T15:57:41.708Z,16.80
2022-10-17T16:00:16.847Z,16.80
2022-10-17T16:02:49.524Z,16.80
2022-10-17T16:05:25.690Z,16.80
2022-10-17T16:07:58.013Z,16.80
2022-10-17T16:10:29.988Z,16.70
2022-10-17T16:13:01.838Z,16.80
2022-10-17T16:15:34.134Z,16.80
2022-10-17T16:18:07.313Z,16.80
2022-10-17T16:20:40.638Z,16.70
2022-10-17T16:23:15.128Z,16.70
2022-10-17T16:25:47.084Z,16.70
2022-10-17T16:28:18.794Z,16.70
2022-10-17T16:30:50.505Z,16.70
2022-10-17T16:33:22.243Z,16.70
2022-10-17T16:35:54.020Z,16.70
2022-10-17T16:38:25.729Z,16.70
2022-10-17T16:40:59.995Z,16.70
2022-10-17T16:43:36.463Z,16.70
2022-10-17T16:46:08.327Z,16.70
2022-10-17T16:51:18.318Z,16.70
2022-10-17T16:53:52.839Z,16.70
2022-10-17T16:56:24.987Z,16.70
2022-10-17T16:58:57.162Z,16.70
2022-10-17T17:01:32.155Z,16.70
2022-10-17T17:04:04.693Z,16.70
2022-10-17T17:06:36.998Z,16.70
2022-10-17T17:09:11.873Z,16.70
2022-10-17T17:11:43.608Z,16.60
2022-10-17T17:14:15.364Z,16.60
2022-10-17T17:16:47.215Z,16.60
2022-10-17T17:19:19.016Z,16.60
2022-10-17T17:21:51.201Z,16.60
2022-10-17T17:24:25.685Z,16.60
2022-10-17T17:27:00.089Z,16.60
2022-10-17T17:29:31.878Z,16.60
2022-10-17T17:32:06.097Z,16.60
2022-10-17T17:34:37.994Z,16.60
2022-10-17T17:37:09.830Z,16.70
2022-10-17T17:39:41.569Z,16.70
2022-10-17T17:42:13.393Z,16.70
2022-10-17T17:44:48.602Z,16.70
2022-10-17T17:47:20.399Z,16.70
2022-10-17T17:49:52.159Z,16.80
2022-10-17T17:52:26.092Z,16.80
2022-10-17T17:55:00.476Z,16.80
2022-10-17T17:57:32.241Z,16.80
2022-10-17T18:00:04.950Z,16.90
2022-10-17T18:02:40.727Z,16.90
2022-10-17T18:05:15.370Z,16.90
2022-10-17T18:07:47.315Z,16.90
2022-10-17T18:10:21.435Z,17.00
2022-10-17T18:12:53.186Z,17.00
2022-10-17T18:15:24.932Z,17.00
2022-10-17T18:17:56.890Z,17.00
2022-10-17T18:20:28.637Z,17.10
2022-10-17T18:23:03.449Z,17.10
2022-10-17T18:25:36.295Z,17.10
2022-10-17T18:28:09.181Z,17.20
2022-10-17T18:30:41.056Z,17.20
2022-10-17T18:33:12.835Z,17.20
2022-10-17T18:35:44.707Z,17.30
2022-10-17T18:38:16.537Z,17.30
2022-10-17T18:40:50.684Z,17.40
2022-10-17T18:43:22.691Z,17.30
2022-10-17T18:45:56.444Z,17.40
2022-10-17T18:48:28.243Z,17.40
2022-10-17T18:51:00.936Z,17.50
2022-10-17T18:53:32.914Z,17.60
2022-10-17T18:56:04.810Z,17.70
2022-10-17T18:58:37.226Z,17.80
2022-10-17T19:01:10.551Z,17.80
2022-10-17T19:03:46.495Z,17.90
2022-10-17T19:06:19.734Z,18.00
2022-10-17T19:08:51.621Z,18.00
2022-10-17T19:11:25.244Z,18.10
2022-10-17T19:14:00.512Z,18.10
2022-10-17T19:16:33.489Z,18.20
2022-10-17T19:19:08.507Z,18.10
2022-10-17T19:21:40.734Z,18.20
2022-10-17T19:24:14.179Z,18.20
2022-10-17T19:26:46.482Z,18.20
2022-10-17T19:29:18.390Z,18.20
2022-10-17T19:31:50.360Z,18.20
2022-10-17T19:34:22.183Z,18.20
2022-10-17T19:36:55.738Z,18.10
2022-10-17T19:39:28.172Z,18.10
2022-10-17T19:42:05.857Z,18.10
2022-10-17T19:44:41.837Z,18.10
2022-10-17T19:47:13.586Z,18.00
2022-10-17T19:49:49.762Z,18.00
2022-10-17T19:52:24.187Z,18.00
2022-10-17T19:54:55.958Z,18.00
2022-10-17T19:57:27.766Z,17.90
2022-10-17T19:59:59.593Z,17.80
2022-10-17T20:02:31.507Z,17.80
2022-10-17T20:05:18.178Z,17.80
2022-10-17T20:07:50.730Z,17.80
2022-10-17T20:10:22.567Z,17.80
2022-10-17T20:12:54.306Z,17.70
2022-10-17T20:15:26.090Z,17.70
2022-10-17T20:17:59.996Z,17.70
2022-10-17T20:20:31.789Z,17.70
2022-10-17T20:23:04.079Z,17.70
2022-10-17T20:25:38.285Z,17.70
2022-10-17T20:28:12.246Z,17.80
2022-10-17T20:30:46.012Z,17.80
2022-10-17T20:33:17.943Z,17.80
2022-10-17T20:35:52.217Z,17.80
2022-10-17T20:38:23.944Z,17.70
2022-10-17T20:40:55.781Z,17.70
2022-10-17T20:43:27.509Z,17.70
2022-10-17T20:46:09.709Z,17.70
2022-10-17T20:48:53.929Z,17.70
2022-10-17T20:51:26.519Z,17.60
2022-10-17T20:54:00.459Z,17.60
2022-10-17T20:56:35.408Z,17.50
2022-10-17T20:59:08.480Z,17.60
2022-10-17T21:01:40.742Z,17.60
2022-10-17T21:04:45.213Z,17.60
2022-10-17T21:07:04.825Z,17.60
2022-10-17T21:09:36.593Z,17.60
2022-10-17T21:12:08.440Z,17.60
2022-10-17T21:14:40.205Z,17.50
2022-10-17T21:17:12.033Z,17.60
2022-10-17T21:19:43.780Z,17.50
2022-10-17T21:22:15.531Z,17.50
2022-10-17T21:24:47.283Z,17.50
2022-10-17T21:27:23.787Z,17.50
2022-10-17T21:29:55.623Z,17.50
2022-10-17T21:32:40.242Z,17.50
2022-10-17T21:35:19.175Z,17.50
2022-10-17T21:37:51.310Z,17.50
2022-10-17T21:40:23.040Z,17.40
2022-10-17T21:42:54.820Z,17.40
2022-10-17T21:45:28.047Z,17.40
2022-10-17T21:48:14.998Z,17.30
2022-10-17T21:50:46.783Z,17.30
2022-10-17T21:53:18.524Z,17.30
2022-10-17T21:55:50.229Z,17.20
2022-10-17T21:58:21.947Z,17.20
2022-10-17T22:00:53.989Z,17.20
2022-10-17T22:03:25.804Z,17.20
2022-10-17T22:06:07.139Z,17.10
2022-10-17T22:08:52.327Z,17.10
2022-10-17T22:11:28.108Z,17.10
2022-10-17T22:14:01.518Z,17.10
2022-10-17T22:16:36.032Z,17.10
2022-10-17T22:19:08.317Z,17.10
2022-10-17T22:21:40.101Z,17.10
2022-10-17T22:24:12.897Z,17.10
2022-10-17T22:26:44.944Z,17.10
2022-10-17T22:29:17.133Z,17.00
2022-10-17T22:31:49.003Z,17.00
2022-10-17T22:34:20.816Z,17.00
2022-10-17T22:36:52.563Z,17.00
2022-10-17T22:39:24.333Z,17.10
2022-10-17T22:41:56.071Z,17.10
2022-10-17T22:44:27.826Z,17.20
2022-10-17T22:46:59.529Z,17.20
2022-10-17T22:49:32.730Z,17.20
2022-10-17T22:52:04.630Z,17.20
2022-10-17T22:54:36.392Z,17.30
2022-10-17T22:57:10.944Z,17.30
2022-10-17T22:59:42.688Z,17.30
2022-10-17T23:02:14.397Z,17.30
2022-10-17T23:04:46.182Z,17.20
2022-10-17T23:07:17.912Z,17.20
2022-10-17T23:09:49.881Z,17.20
2022-10-17T23:12:21.567Z,17.20
2022-10-17T23:14:53.389Z,17.10
2022-10-17T23:17:27.528Z,17.10
2022-10-17T23:19:59.256Z,17.10
2022-10-17T23:22:31.214Z,17.10
2022-10-17T23:25:03.433Z,17.10
2022-10-17T23:27:35.505Z,17.00
2022-10-17T23:30:07.629Z,17.00
2022-10-17T23:32:39.737Z,17.00
2022-10-17T23:35:11.559Z,17.00
2022-10-17T23:37:43.354Z,17.00
2022-10-17T23:40:15.175Z,17.00
2022-10-17T23:42:49.387Z,17.00
2022-10-17T23:45:21.286Z,17.00
2022-10-17T23:47:53.033Z,17.00
2022-10-17T23:50:24.901Z,17.00
2022-10-17T23:52:56.639Z,16.90
2022-10-17T23:55:28.387Z,16.80
2022-10-17T23:58:00.124Z,16.90
